Time;durP1;ratioP1;P1;durP2;ratioP2;P2;SDS_P1;SDS_P2;PMS_P1;PMS_P2;Temp;Humidity;BMP_temperature;BMP_pressure;BME280_temperature;BME280_humidity;BME280_pressure;Samples;Min_cycle;Max_cycle;Signal;HPM_P1;HPM_P2
2022/10/20 00:01:32;;;;;;;27.93;11.75;;;;;;;11.05;78.86;99614.62;1637951;86;21060;-81
2022/10/20 00:04:00;;;;;;;24.85;12.35;;;;;;;11.03;78.45;99617.69;1630364;86;21020;-81
2022/10/20 00:06:31;;;;;;;22.50;11.97;;;;;;;11.00;78.29;99622.52;1636433;86;21053;-81
2022/10/20 00:09:02;;;;;;;30.43;13.65;;;;;;;10.96;78.73;99618.23;1627091;88;21072;-82
2022/10/20 00:11:31;;;;;;;31.20;13.15;;;;;;;10.92;78.61;99619.17;1637806;88;21087;-82
2022/10/20 00:14:00;;;;;;;32.95;14.75;;;;;;;10.87;78.82;99628.37;1634458;88;21579;-82
2022/10/20 00:16:30;;;;;;;30.23;14.68;;;;;;;10.85;79.33;99630.14;1631529;86;21092;-82
2022/10/20 00:18:58;;;;;;;31.90;14.03;;;;;;;10.80;79.93;99635.00;1632200;86;21036;-81
2022/10/20 00:21:27;;;;;;;32.50;13.45;;;;;;;10.73;79.63;99630.36;1631811;86;21005;-83
2022/10/20 00:23:58;;;;;;;35.17;14.60;;;;;;;10.67;79.28;99635.22;1632112;88;21141;-81
2022/10/20 00:26:28;;;;;;;32.90;14.38;;;;;;;10.63;79.08;99630.11;1635656;88;21484;-82
2022/10/20 00:28:57;;;;;;;30.20;14.40;;;;;;;10.57;80.24;99628.45;1635825;88;21057;-81
2022/10/20 00:31:25;;;;;;;31.85;13.70;;;;;;;10.51;79.88;99624.22;1632441;86;21035;-81
2022/10/20 00:33:53;;;;;;;32.38;14.53;;;;;;;10.45;80.23;99624.31;1621449;88;21103;-82
2022/10/20 00:36:22;;;;;;;26.80;13.50;;;;;;;10.43;79.46;99626.08;1625222;87;21068;-81
2022/10/20 00:38:54;;;;;;;34.80;14.98;;;;;;;10.41;79.88;99621.35;1638308;88;21079;-81
2022/10/20 00:41:22;;;;;;;32.45;14.07;;;;;;;10.38;80.01;99625.73;1629379;87;21091;-81
2022/10/20 00:44:00;;;;;;;32.30;14.30;;;;;;;10.27;79.84;99635.83;1637941;88;21074;-81
2022/10/20 00:46:33;;;;;;;30.15;13.30;;;;;;;10.22;79.89;99644.12;1622757;88;21111;-81
2022/10/20 00:49:07;;;;;;;33.02;14.28;;;;;;;10.16;80.14;99641.61;1621022;88;21026;-81
2022/10/20 00:51:35;;;;;;;29.60;14.65;;;;;;;10.05;81.01;99644.83;1626657;87;21008;-81
2022/10/20 00:54:16;;;;;;;33.33;13.65;;;;;;;9.90;79.90;99638.94;1613210;88;20999;-82
2022/10/20 00:56:46;;;;;;;29.95;14.53;;;;;;;9.85;81.26;99636.02;1637017;88;21063;-82
2022/10/20 00:59:19;;;;;;;28.25;12.65;;;;;;;9.75;81.84;99630.08;1639409;88;21087;-81
2022/10/20 01:01:48;;;;;;;25.80;12.37;;;;;;;9.66;81.28;99631.04;1634544;87;21046;-81
2022/10/20 01:04:17;;;;;;;29.98;14.00;;;;;;;9.60;81.66;99635.02;1635492;88;21019;-82
2022/10/20 01:06:44;;;;;;;29.15;12.20;;;;;;;9.59;81.69;99636.33;1635084;88;21050;-83
2022/10/20 01:09:12;;;;;;;31.30;13.45;;;;;;;9.62;82.45;99641.05;1632428;87;21047;-81
2022/10/20 01:12:06;;;;;;;34.13;14.05;;;;;;;9.64;82.49;99644.92;1620764;88;21027;-81
2022/10/20 01:15:31;;;;;;;30.52;14.15;;;;;;;9.64;82.11;99648.82;1638488;88;21032;-82
2022/10/20 01:18:09;;;;;;;28.40;12.10;;;;;;;9.61;82.05;99655.33;1633275;87;21047;-80
2022/10/20 01:21:03;;;;;;;32.98;13.68;;;;;;;9.60;82.33;99653.63;1625298;88;21099;-81
2022/10/20 01:23:48;;;;;;;44.77;15.65;;;;;;;9.57;81.62;99645.45;1588297;88;21091;-81
2022/10/20 01:26:41;;;;;;;36.38;14.98;;;;;;;9.51;81.84;99651.57;1632866;88;21088;-82
2022/10/20 01:29:17;;;;;;;35.35;16.62;;;;;;;9.46;81.64;99659.84;1618657;88;21016;-80
2022/10/20 01:31:49;;;;;;;40.78;18.12;;;;;;;9.35;80.43;99661.69;1609306;87;21103;-81
2022/10/20 01:34:31;;;;;;;33.53;16.12;;;;;;;9.27;80.71;99657.91;1624567;88;21062;-81
2022/10/20 01:37:16;;;;;;;37.25;15.45;;;;;;;9.21;81.54;99658.39;1610069;88;21074;-81
2022/10/20 01:39:57;;;;;;;31.00;14.33;;;;;;;9.15;81.85;99660.59;1604495;87;21352;-81
2022/10/20 01:42:28;;;;;;;30.40;13.90;;;;;;;9.12;81.84;99658.05;1615515;88;21088;-80
2022/10/20 01:45:00;;;;;;;32.05;13.08;;;;;;;9.08;81.60;99661.55;1606916;88;21099;-81
2022/10/20 01:47:29;;;;;;;26.35;10.85;;;;;;;8.99;80.52;99667.67;1616177;89;21151;-80
2022/10/20 01:49:57;;;;;;;21.90;10.72;;;;;;;8.87;81.86;99671.68;1602610;88;20980;-81
2022/10/20 01:52:27;;;;;;;24.57;11.03;;;;;;;8.79;81.12;99670.89;1616347;89;21055;-81
2022/10/20 01:54:54;;;;;;;21.50;10.08;;;;;;;8.72;82.02;99673.98;1613830;87;21016;-82
2022/10/20 01:57:55;;;;;;;23.25;8.75;;;;;;;8.73;82.60;99671.39;1616159;89;21039;-81
2022/10/20 02:00:23;;;;;;;21.80;9.50;;;;;;;8.73;82.32;99670.50;1614723;87;21012;-81
2022/10/20 02:03:35;;;;;;;18.57;8.75;;;;;;;8.67;81.99;99675.30;1614897;88;20984;-81
2022/10/20 02:06:26;;;;;;;17.60;8.55;;;;;;;8.61;81.89;99681.83;1637556;87;21031;-81
2022/10/20 02:08:57;;;;;;;20.68;8.65;;;;;;;8.61;82.51;99685.72;1616776;87;21088;-82
2022/10/20 02:11:36;;;;;;;18.35;9.05;;;;;;;8.58;82.16;99690.09;1608535;87;21490;-81
2022/10/20 02:14:07;;;;;;;22.70;9.28;;;;;;;8.56;81.93;99696.13;1614783;89;21043;-82
2022/10/20 02:16:39;;;;;;;23.32;9.33;;;;;;;8.55;82.77;99697.02;1617444;87;21036;-80
2022/10/20 02:19:10;;;;;;;19.95;9.25;;;;;;;8.55;82.87;99702.61;1615971;88;21579;-81
2022/10/20 02:21:37;;;;;;;16.57;8.73;;;;;;;8.55;82.10;99700.91;1616353;87;21015;-81
2022/10/20 02:24:08;;;;;;;15.40;8.80;;;;;;;8.50;81.54;99702.66;1628833;88;21007;-81
2022/10/20 02:26:39;;;;;;;24.67;10.15;;;;;;;8.46;81.79;99710.02;1610806;88;21063;-81
2022/10/20 02:29:20;;;;;;;23.77;9.43;;;;;;;8.42;81.68;99710.92;1616271;88;20988;-81
2022/10/20 02:31:48;;;;;;;22.22;10.13;;;;;;;8.31;81.35;99711.37;1618404;86;21619;-82
2022/10/20 02:34:15;;;;;;;24.18;9.70;;;;;;;8.29;81.71;99713.97;1626701;88;21113;-81
2022/10/20 02:36:44;;;;;;;19.75;9.93;;;;;;;8.30;81.65;99714.85;1637060;87;21341;-81
2022/10/20 02:39:12;;;;;;;22.17;9.20;;;;;;;8.30;81.29;99722.62;1638539;87;21523;-80
2022/10/20 02:41:39;;;;;;;26.10;10.25;;;;;;;8.24;80.69;99714.45;1618321;88;21039;-80
2022/10/20 02:44:07;;;;;;;18.92;9.53;;;;;;;8.15;80.85;99714.05;1623559;88;20993;-80
2022/10/20 02:46:34;;;;;;;37.25;10.55;;;;;;;8.10;80.84;99710.64;1629264;88;21626;-80
2022/10/20 02:49:02;;;;;;;31.20;9.20;;;;;;;8.05;80.71;99711.08;1636850;88;21043;-81
2022/10/20 02:51:29;;;;;;;26.75;9.20;;;;;;;7.95;80.59;99708.97;1623607;88;21029;-81
2022/10/20 02:53:56;;;;;;;19.07;8.20;;;;;;;7.87;81.37;99717.64;1621687;88;21103;-81
2022/10/20 02:56:24;;;;;;;16.55;8.33;;;;;;;7.83;81.67;99714.64;1635071;87;21051;-81
2022/10/20 02:58:52;;;;;;;21.02;8.40;;;;;;;7.79;81.87;99721.55;1633853;88;21055;-80
2022/10/20 03:01:21;;;;;;;25.23;7.78;;;;;;;7.71;80.77;99714.25;1620521;88;21004;-81
2022/10/20 03:03:48;;;;;;;20.90;8.15;;;;;;;7.64;81.82;99719.89;1631129;87;21032;-80
2022/10/20 03:06:16;;;;;;;15.80;7.33;;;;;;;7.66;83.78;99726.34;1637621;87;21141;-80
2022/10/20 03:08:43;;;;;;;20.55;7.90;;;;;;;7.67;83.52;99728.92;1631901;87;21055;-81
2022/10/20 03:11:11;;;;;;;22.25;9.73;;;;;;;7.69;83.00;99739.28;1635461;88;20968;-82
2022/10/20 03:13:38;;;;;;;28.32;12.50;;;;;;;7.67;82.42;99743.60;1627900;87;21087;-81
2022/10/20 03:16:06;;;;;;;28.42;11.78;;;;;;;7.62;82.31;99746.21;1633540;88;21091;-80
2022/10/20 03:18:34;;;;;;;29.95;10.03;;;;;;;7.64;82.46;99744.89;1636106;87;21055;-80
2022/10/20 03:21:01;;;;;;;22.30;9.63;;;;;;;7.62;82.14;99747.51;1624785;87;21043;-81
2022/10/20 03:23:29;;;;;;;27.77;8.93;;;;;;;7.62;82.05;99750.09;1639058;86;21011;-81
2022/10/20 03:26:04;;;;;;;15.48;7.72;;;;;;;7.56;81.02;99760.02;1633282;88;21043;-81
2022/10/20 03:28:32;;;;;;;26.57;10.80;;;;;;;7.49;81.61;99755.71;1630837;88;21039;-80
2022/10/20 03:30:59;;;;;;;26.52;12.00;;;;;;;7.45;81.19;99757.02;1616514;88;21091;-80
2022/10/20 03:33:27;;;;;;;22.42;11.00;;;;;;;7.32;80.55;99763.92;1636186;88;21031;-80
2022/10/20 03:35:54;;;;;;;28.07;11.68;;;;;;;7.23;81.66;99763.95;1621697;87;21052;-81
2022/10/20 03:38:22;;;;;;;29.27;11.60;;;;;;;7.20;82.13;99763.50;1635033;88;21055;-80
2022/10/20 03:40:50;;;;;;;29.15;11.38;;;;;;;7.21;82.47;99771.70;1637627;88;21063;-80
2022/10/20 03:43:17;;;;;;;28.55;12.58;;;;;;;7.23;82.11;99769.98;1629291;88;21098;-81
2022/10/20 03:45:45;;;;;;;22.77;11.75;;;;;;;7.19;82.11;99773.88;1619657;88;21008;-80
2022/10/20 03:48:12;;;;;;;30.97;13.08;;;;;;;7.19;82.52;99766.97;1637228;88;21051;-81
2022/10/20 03:50:41;;;;;;;27.67;10.78;;;;;;;7.19;82.69;99768.70;1632265;87;21072;-81
2022/10/20 03:53:12;;;;;;;30.23;11.35;;;;;;;7.21;82.58;99772.15;1633718;88;21599;-80
2022/10/20 03:55:39;;;;;;;25.60;11.28;;;;;;;7.17;82.70;99777.30;1627959;87;21539;-81
2022/10/20 03:58:07;;;;;;;62.65;11.75;;;;;;;7.12;82.02;99772.99;1635127;88;21532;-80
2022/10/20 04:00:35;;;;;;;92.55;12.50;;;;;;;7.02;80.95;99781.61;1626192;88;21038;-80
2022/10/20 04:03:03;;;;;;;47.30;10.23;;;;;;;6.90;81.60;99784.64;1624779;88;21580;-81
2022/10/20 04:05:30;;;;;;;39.63;8.95;;;;;;;6.86;82.04;99789.35;1637503;88;21114;-81
2022/10/20 04:07:58;;;;;;;45.78;8.85;;;;;;;6.83;81.98;99794.97;1629987;88;21083;-81
2022/10/20 04:10:25;;;;;;;33.90;8.65;;;;;;;6.77;81.51;99794.09;1626559;88;21031;-80
2022/10/20 04:12:59;;;;;;;33.42;7.95;;;;;;;6.72;81.61;99785.89;1635700;87;21051;-81
2022/10/20 04:15:27;;;;;;;29.65;8.68;;;;;;;6.68;82.28;99785.45;1639187;87;21568;-80
2022/10/20 04:17:54;;;;;;;21.52;9.80;;;;;;;6.67;82.37;99787.19;1636749;88;21060;-80
2022/10/20 04:20:22;;;;;;;31.62;9.65;;;;;;;6.65;82.08;99786.77;1639415;87;21039;-80
2022/10/20 04:22:50;;;;;;;24.95;10.50;;;;;;;6.63;82.14;99788.48;1628069;87;21012;-81
2022/10/20 04:25:17;;;;;;;31.42;10.30;;;;;;;6.61;82.67;99783.74;1639614;88;20988;-81
2022/10/20 04:27:45;;;;;;;37.67;10.80;;;;;;;6.64;82.93;99783.73;1635984;88;20980;-79
2022/10/20 04:30:12;;;;;;;40.35;10.98;;;;;;;6.64;82.56;99790.19;1638281;88;21080;-81
2022/10/20 04:32:40;;;;;;;25.35;10.35;;;;;;;6.62;82.27;99794.49;1635634;87;21157;-81
2022/10/20 04:35:08;;;;;;;20.82;10.40;;;;;;;6.59;82.43;99799.23;1635768;87;21019;-80
2022/10/20 04:37:36;;;;;;;37.45;11.73;;;;;;;6.56;82.13;99790.17;1641960;86;21023;-81
2022/10/20 04:40:04;;;;;;;34.23;9.90;;;;;;;6.52;82.31;99790.58;1642858;87;21090;-81
2022/10/20 04:42:31;;;;;;;28.95;9.98;;;;;;;6.49;82.51;99789.30;1631676;87;21007;-80
2022/10/20 04:44:59;;;;;;;21.87;8.45;;;;;;;6.45;83.23;99797.05;1646064;87;20978;-80
2022/10/20 04:47:32;;;;;;;26.17;9.73;;;;;;;6.40;82.95;99786.68;1632157;87;21055;-81
2022/10/20 04:50:00;;;;;;;17.20;7.67;;;;;;;6.36;82.54;99796.57;1645265;87;21063;-80
2022/10/20 04:52:28;;;;;;;21.27;8.55;;;;;;;6.25;83.07;99803.00;1646061;87;21100;-79
2022/10/20 04:54:56;;;;;;;18.57;8.73;;;;;;;6.25;83.47;99802.16;1635461;87;21214;-80
2022/10/20 04:57:24;;;;;;;17.32;8.35;;;;;;;6.24;83.57;99806.86;1642921;87;21064;-80
2022/10/20 04:59:51;;;;;;;26.17;8.78;;;;;;;6.27;83.19;99812.05;1669133;85;21085;-80
2022/10/20 05:02:19;;;;;;;31.25;14.23;;;;;;;6.30;83.58;99806.88;1624109;87;20984;-79
2022/10/20 05:04:46;;;;;;;31.70;10.13;;;;;;;6.35;83.49;99808.63;1633815;87;21025;-80
2022/10/20 05:07:14;;;;;;;23.75;10.15;;;;;;;6.34;82.45;99812.49;1621804;87;21027;-81
2022/10/20 05:09:41;;;;;;;23.70;10.48;;;;;;;6.33;82.88;99814.66;1635028;87;21077;-81
2022/10/20 05:12:09;;;;;;;34.15;9.98;;;;;;;6.30;82.51;99811.61;1626171;87;21056;-80
2022/10/20 05:14:36;;;;;;;25.88;9.63;;;;;;;6.33;82.59;99814.66;1629485;87;21075;-80
2022/10/20 05:17:03;;;;;;;22.87;9.03;;;;;;;6.33;82.43;99809.49;1644122;86;21044;-80
2022/10/20 05:19:31;;;;;;;24.63;10.50;;;;;;;6.33;83.67;99809.49;1643886;86;21010;-80
2022/10/20 05:21:58;;;;;;;17.85;8.55;;;;;;;6.34;82.96;99815.08;1637513;87;21039;-79
2022/10/20 05:24:26;;;;;;;22.52;9.48;;;;;;;6.35;82.70;99818.96;1624003;87;21063;-79
2022/10/20 05:26:53;;;;;;;18.32;9.40;;;;;;;6.39;82.88;99819.84;1647657;86;21028;-79
2022/10/20 05:29:21;;;;;;;24.65;9.10;;;;;;;6.45;82.96;99827.61;1647934;87;21055;-79
2022/10/20 05:31:48;;;;;;;22.20;9.53;;;;;;;6.48;82.62;99834.50;1632722;87;21588;-79
2022/10/20 05:34:16;;;;;;;27.93;12.47;;;;;;;6.48;82.46;99843.09;1620665;88;21040;-79
2022/10/20 05:36:44;;;;;;;31.15;13.83;;;;;;;6.48;82.46;99844.83;1625569;88;21017;-80
2022/10/20 05:39:11;;;;;;;25.27;12.82;;;;;;;6.50;82.50;99859.47;1637982;86;21024;-79
2022/10/20 05:41:39;;;;;;;23.83;11.80;;;;;;;6.47;82.15;99858.62;1627550;86;21036;-79
2022/10/20 05:44:09;;;;;;;25.05;10.32;;;;;;;6.50;82.51;99855.59;1637389;88;21060;-80
2022/10/20 05:46:41;;;;;;;17.65;10.10;;;;;;;6.52;82.41;99859.04;1628263;86;21111;-79
2022/10/20 05:49:15;;;;;;;33.65;10.95;;;;;;;6.53;82.19;99869.83;1620100;87;21057;-80
2022/10/20 05:51:45;;;;;;;22.40;9.83;;;;;;;6.55;82.02;99866.81;1629617;88;21020;-80
2022/10/20 05:54:14;;;;;;;15.95;8.65;;;;;;;6.57;82.22;99870.70;1633263;86;21020;-80
2022/10/20 05:56:41;;;;;;;24.57;10.35;;;;;;;6.61;82.44;99880.63;1616024;88;21685;-79
2022/10/20 05:59:09;;;;;;;25.15;11.18;;;;;;;6.63;82.17;99881.06;1632501;86;21610;-79
2022/10/20 06:01:49;;;;;;;20.68;9.98;;;;;;;6.68;83.05;99884.50;1634240;86;21532;-79
2022/10/20 06:04:23;;;;;;;22.42;10.58;;;;;;;6.74;82.62;99883.66;1636032;88;21008;-81
2022/10/20 06:06:52;;;;;;;25.05;9.80;;;;;;;6.83;82.99;99899.21;1621880;88;21040;-79
2022/10/20 06:09:21;;;;;;;17.20;10.43;;;;;;;6.86;83.66;99901.78;1631465;86;21079;-80
2022/10/20 06:11:50;;;;;;;22.13;10.72;;;;;;;6.89;83.58;99901.81;1625422;86;21068;-79
2022/10/20 06:14:21;;;;;;;23.77;10.68;;;;;;;6.93;83.51;99910.01;1622467;88;21560;-80
2022/10/20 06:16:52;;;;;;;19.87;9.43;;;;;;;7.02;83.75;99923.38;1634585;87;21091;-80
2022/10/20 06:19:21;;;;;;;24.55;10.20;;;;;;;7.11;83.65;99915.66;1636856;88;21000;-79
2022/10/20 06:21:50;;;;;;;22.65;10.43;;;;;;;7.22;83.95;99918.69;1622317;88;21092;-80
2022/10/20 06:24:18;;;;;;;28.87;12.58;;;;;;;7.29;83.41;99918.70;1630843;88;21023;-80
2022/10/20 06:26:46;;;;;;;21.00;10.23;;;;;;;7.38;84.85;99924.30;1631641;86;21032;-78
2022/10/20 06:29:17;;;;;;;23.65;11.22;;;;;;;7.50;84.72;99924.75;1634151;86;20996;-78
2022/10/20 06:31:48;;;;;;;25.65;12.40;;;;;;;7.58;84.57;99937.28;1629261;86;21020;-79
2022/10/20 06:34:22;;;;;;;23.18;13.03;;;;;;;7.67;84.42;99934.68;1636064;86;21060;-79
2022/10/20 06:36:50;;;;;;;22.98;12.43;;;;;;;7.81;84.64;99934.68;1630866;86;21064;-80
2022/10/20 06:39:21;;;;;;;25.65;12.53;;;;;;;7.94;84.85;99933.81;1636728;87;21233;-80
2022/10/20 06:41:53;;;;;;;32.67;13.72;;;;;;;8.07;85.21;99935.95;1620643;86;21072;-79
2022/10/20 06:44:23;;;;;;;26.95;10.88;;;;;;;8.18;85.27;99934.66;1629327;88;21052;-79
2022/10/20 06:46:51;;;;;;;22.40;10.65;;;;;;;8.23;85.32;99935.48;1622792;88;21576;-79
2022/10/20 06:49:19;;;;;;;27.82;11.25;;;;;;;8.26;85.06;99931.61;1626433;88;21481;-79
2022/10/20 06:51:47;;;;;;;21.37;11.12;;;;;;;8.33;85.03;99938.48;1632483;88;21556;-80
2022/10/20 06:54:15;;;;;;;26.10;11.78;;;;;;;8.45;85.58;99945.84;1617992;88;21005;-80
2022/10/20 06:56:43;;;;;;;28.17;12.75;;;;;;;8.50;84.95;99950.59;1626407;88;21016;-79
2022/10/20 06:59:10;;;;;;;23.25;11.48;;;;;;;8.56;85.48;99947.53;1619526;88;21064;-80
2022/10/20 07:01:39;;;;;;;28.98;13.05;;;;;;;8.63;84.86;99944.91;1641863;87;21111;-80
2022/10/20 07:04:13;;;;;;;26.57;13.28;;;;;;;8.70;84.46;99945.33;1636059;87;21016;-80
2022/10/20 07:06:44;;;;;;;27.07;12.78;;;;;;;8.69;84.83;99939.70;1636659;87;21020;-79
2022/10/20 07:09:16;;;;;;;29.18;13.75;;;;;;;8.77;84.61;99945.72;1620884;87;21094;-79
2022/10/20 07:11:44;;;;;;;30.68;13.70;;;;;;;8.86;84.73;99945.69;1633950;87;21052;-80
2022/10/20 07:14:13;;;;;;;34.88;15.53;;;;;;;8.99;84.35;99945.18;1621492;87;21020;-80
2022/10/20 07:16:40;;;;;;;35.13;15.18;;;;;;;9.05;84.16;99949.06;1635371;87;21119;-80
2022/10/20 07:19:08;;;;;;;27.85;14.23;;;;;;;9.16;84.04;99952.89;1634639;87;21039;-79
2022/10/20 07:21:36;;;;;;;26.80;13.65;;;;;;;9.24;83.45;99947.22;1636239;87;21098;-81
2022/10/20 07:24:06;;;;;;;33.55;13.83;;;;;;;9.35;83.47;99948.43;1645981;86;20991;-79
2022/10/20 07:26:37;;;;;;;29.27;12.47;;;;;;;9.42;82.99;99956.62;1631902;87;21055;-80
2022/10/20 07:29:05;;;;;;;22.45;12.47;;;;;;;9.50;82.67;99954.83;1633336;87;21033;-80
2022/10/20 07:31:40;;;;;;;26.05;11.70;;;;;;;9.62;82.28;99961.67;1634786;87;21012;-80
2022/10/20 07:34:10;;;;;;;23.42;11.75;;;;;;;9.70;82.18;99966.80;1625443;87;21048;-80
2022/10/20 07:36:41;;;;;;;24.75;9.90;;;;;;;9.81;82.12;99953.31;1685122;84;21103;-80
2022/10/20 07:39:11;;;;;;;23.10;10.05;;;;;;;9.92;80.14;99961.00;1692080;85;21019;-80
2022/10/20 07:41:42;;;;;;;24.30;9.25;;;;;;;10.05;80.07;99956.58;1683223;85;21119;-80
2022/10/20 07:44:09;;;;;;;24.27;8.58;;;;;;;10.19;79.84;99957.30;1678789;85;21050;-80
2022/10/20 07:46:37;;;;;;;23.83;9.13;;;;;;;10.40;78.82;99956.23;1677167;84;21080;-81
2022/10/20 07:49:04;;;;;;;20.72;8.03;;;;;;;10.48;76.10;99963.95;1679248;84;21139;-79
2022/10/20 07:51:33;;;;;;;14.55;7.05;;;;;;;10.57;76.96;99958.66;1648791;86;21021;-80
2022/10/20 07:54:05;;;;;;;19.05;8.48;;;;;;;10.66;76.43;99966.79;1637319;87;21039;-80
2022/10/20 07:56:42;;;;;;;14.18;7.03;;;;;;;10.71;74.89;99970.21;1651293;86;21047;-80
2022/10/20 07:59:11;;;;;;;14.70;6.72;;;;;;;10.78;75.95;99966.64;1644754;87;21003;-80
2022/10/20 08:01:40;;;;;;;14.55;7.25;;;;;;;10.85;75.73;99968.30;1658778;86;21084;-80
2022/10/20 08:04:08;;;;;;;20.72;6.80;;;;;;;10.89;75.39;99967.38;1636106;87;21047;-80
2022/10/20 08:06:36;;;;;;;12.55;6.42;;;;;;;10.97;74.85;99966.44;1638279;87;21598;-80
2022/10/20 08:09:03;;;;;;;8.95;4.22;;;;;;;11.03;73.49;99963.75;1641860;87;21035;-79
2022/10/20 08:11:31;;;;;;;8.98;4.83;;;;;;;11.10;74.31;99964.07;1635211;87;21081;-80
2022/10/20 08:13:59;;;;;;;13.65;5.95;;;;;;;11.13;74.15;99965.34;1641081;87;20980;-79
2022/10/20 08:16:26;;;;;;;13.15;5.95;;;;;;;11.17;73.89;99963.56;1627284;88;21059;-81
2022/10/20 08:18:54;;;;;;;11.73;6.05;;;;;;;11.25;71.90;99966.92;1639655;87;21106;-81
2022/10/20 08:21:23;;;;;;;11.30;4.92;;;;;;;11.30;72.71;99968.58;1627151;86;21077;-79
2022/10/20 08:23:51;;;;;;;12.15;4.60;;;;;;;11.36;70.25;99963.73;1634869;87;21577;-79
2022/10/20 08:26:25;;;;;;;13.00;4.95;;;;;;;11.40;70.96;99969.73;1634535;87;21051;-79
2022/10/20 08:28:54;;;;;;;11.75;5.40;;;;;;;11.39;70.48;99970.63;1640492;86;21047;-80
2022/10/20 08:31:22;;;;;;;10.58;4.70;;;;;;;11.37;69.15;99971.95;1627888;87;21067;-80
2022/10/20 08:33:50;;;;;;;11.22;4.55;;;;;;;11.44;68.70;99968.80;1630881;86;21069;-80
2022/10/20 08:36:18;;;;;;;13.75;5.30;;;;;;;11.53;69.86;99966.92;1637471;87;21108;-81
2022/10/20 08:38:45;;;;;;;8.73;4.20;;;;;;;11.61;70.03;99977.68;1630669;87;21067;-79
2022/10/20 08:41:25;;;;;;;9.98;4.08;;;;;;;11.63;69.08;99975.47;1631484;87;21088;-80
2022/10/20 08:43:56;;;;;;;9.98;4.10;;;;;;;11.64;67.73;99979.80;1635579;87;21167;-82
2022/10/20 08:46:37;;;;;;;7.70;3.40;;;;;;;11.67;66.08;99984.95;1635742;87;21164;-80
2022/10/20 08:49:10;;;;;;;9.23;4.03;;;;;;;11.73;67.62;99980.09;1628310;87;21079;-80
2022/10/20 08:51:38;;;;;;;8.33;3.95;;;;;;;11.81;64.49;99980.83;1625564;87;21028;-80
2022/10/20 08:54:12;;;;;;;8.98;4.15;;;;;;;11.80;66.06;99979.13;1635451;87;21048;-81
2022/10/20 08:56:40;;;;;;;10.55;4.05;;;;;;;11.85;65.44;99973.38;1635265;87;21043;-79
2022/10/20 08:59:33;;;;;;;9.05;4.17;;;;;;;11.94;66.02;99972.42;1635014;87;21056;-80
2022/10/20 09:02:05;;;;;;;8.63;2.87;;;;;;;12.02;66.53;99967.94;1623612;87;21091;-82
2022/10/20 09:04:37;;;;;;;5.97;3.12;;;;;;;12.10;65.24;99975.17;1640683;87;21604;-80
2022/10/20 09:07:13;;;;;;;5.45;3.12;;;;;;;12.17;65.62;99972.00;1633086;87;21019;-78
2022/10/20 09:09:41;;;;;;;7.75;3.15;;;;;;;12.26;62.49;99973.16;1614044;87;21084;-81
2022/10/20 09:12:13;;;;;;;6.75;3.47;;;;;;;12.29;64.47;99971.78;1623558;87;21000;-79
2022/10/20 09:14:41;;;;;;;6.78;3.05;;;;;;;12.33;62.55;99975.20;1637548;87;21059;-79
2022/10/20 09:17:15;;;;;;;9.10;3.58;;;;;;;12.37;64.18;99965.13;1633836;87;21023;-79
2022/10/20 09:19:48;;;;;;;4.90;2.67;;;;;;;12.41;61.33;99965.48;1630334;87;21013;-80
2022/10/20 09:22:18;;;;;;;6.00;2.95;;;;;;;12.47;61.63;99975.83;1621031;87;21070;-80
2022/10/20 09:24:47;;;;;;;7.62;3.08;;;;;;;12.52;61.91;99975.73;1636689;87;21000;-79
2022/10/20 09:27:38;;;;;;;6.20;2.67;;;;;;;12.58;62.01;99967.78;1622409;87;21095;-83
2022/10/20 09:30:25;;;;;;;6.05;3.08;;;;;;;12.63;62.66;99971.14;1640345;87;21060;-79
2022/10/20 09:32:53;;;;;;;8.03;3.35;;;;;;;12.74;60.74;99972.26;1628471;87;22198;-79
2022/10/20 09:35:34;;;;;;;6.47;2.30;;;;;;;12.84;61.63;99968.57;1628707;87;21100;-79
2022/10/20 09:38:28;;;;;;;6.28;2.60;;;;;;;12.98;62.06;99971.34;1632813;87;21703;-80
2022/10/20 09:41:20;;;;;;;5.17;2.77;;;;;;;13.03;61.54;99974.28;1655572;85;21138;-79
2022/10/20 09:43:55;;;;;;;6.12;3.27;;;;;;;13.11;59.92;99974.97;1616865;86;21634;-80
2022/10/20 09:46:28;;;;;;;5.28;2.87;;;;;;;13.18;56.56;99971.77;1636777;87;21140;-79
2022/10/20 09:48:57;;;;;;;6.35;2.80;;;;;;;13.22;58.19;99966.05;1631471;87;21055;-79
2022/10/20 09:51:27;;;;;;;7.60;2.87;;;;;;;13.24;58.31;99964.25;1640093;87;21595;-80
2022/10/20 09:54:02;;;;;;;6.97;3.12;;;;;;;13.20;56.90;99960.84;1648772;85;21109;-80
2022/10/20 09:56:37;;;;;;;5.65;2.85;;;;;;;13.28;58.16;99964.14;1683006;85;21617;-80
2022/10/20 09:59:10;;;;;;;6.53;2.67;;;;;;;13.26;55.42;99955.48;1665866;85;21042;-80
2022/10/20 10:02:00;;;;;;;5.70;2.47;;;;;;;13.32;57.67;99954.07;1638641;86;21008;-80
2022/10/20 10:04:38;;;;;;;6.90;3.08;;;;;;;13.40;54.24;99957.82;1622276;87;21059;-80
2022/10/20 10:07:29;;;;;;;3.87;2.35;;;;;;;13.47;56.35;99955.95;1634014;87;21037;-80
2022/10/20 10:10:18;;;;;;;6.42;2.70;;;;;;;13.49;56.75;99951.55;1599146;89;21509;-79
2022/10/20 10:12:55;;;;;;;6.40;2.80;;;;;;;13.62;57.71;99954.26;1612907;88;21097;-79
2022/10/20 10:15:31;;;;;;;4.75;2.80;;;;;;;13.78;57.32;99955.20;1636590;87;21087;-80
2022/10/20 10:17:59;;;;;;;11.50;2.67;;;;;;;13.83;55.71;99952.04;1621490;87;21087;-82
2022/10/20 10:20:37;;;;;;;8.43;3.10;;;;;;;13.91;56.22;99947.48;1649273;85;21064;-80
2022/10/20 10:23:19;;;;;;;4.65;2.40;;;;;;;13.99;50.62;99948.59;1609241;89;21032;-80
2022/10/20 10:25:47;;;;;;;4.30;2.40;;;;;;;14.09;54.31;99945.69;1605682;87;21012;-80
2022/10/20 10:28:37;;;;;;;12.28;3.00;;;;;;;14.17;54.32;99945.95;1612973;89;20995;-80
2022/10/20 10:31:23;;;;;;;6.25;2.75;;;;;;;14.27;54.27;99944.80;1602222;87;21035;-80
2022/10/20 10:33:56;;;;;;;6.35;2.60;;;;;;;14.37;52.53;99937.57;1611400;88;21063;-79
2022/10/20 10:36:32;;;;;;;10.88;2.60;;;;;;;14.41;53.00;99933.52;1603864;88;21055;-81
2022/10/20 10:39:03;;;;;;;8.30;2.65;;;;;;;14.49;52.50;99918.91;1610966;89;21572;-83
2022/10/20 10:42:14;;;;;;;6.65;2.95;;;;;;;14.61;52.83;99922.98;1603590;88;21068;-80
2022/10/20 10:45:13;;;;;;;6.17;2.75;;;;;;;14.72;52.37;99923.51;1611578;89;21327;-80
2022/10/20 10:47:55;;;;;;;6.62;2.65;;;;;;;14.84;50.22;99920.98;1617971;88;21102;-80
2022/10/20 10:50:42;;;;;;;9.20;2.65;;;;;;;14.96;51.86;99905.37;1609024;88;21051;-80
2022/10/20 10:53:30;;;;;;;7.10;2.87;;;;;;;15.03;50.95;99909.53;1625813;88;21067;-79
2022/10/20 10:56:09;;;;;;;6.72;3.00;;;;;;;15.19;49.57;99911.22;1616832;88;21044;-79
2022/10/20 10:58:54;;;;;;;7.65;2.92;;;;;;;15.36;51.51;99910.68;1602993;88;21080;-80
2022/10/20 11:02:03;;;;;;;5.45;2.60;;;;;;;15.48;51.62;99907.23;1613127;87;21071;-80
2022/10/20 11:05:17;;;;;;;5.80;2.60;;;;;;;15.59;50.60;99912.11;1635036;88;21095;-80
2022/10/20 11:07:56;;;;;;;7.08;3.30;;;;;;;15.64;49.60;99901.03;1637725;85;21102;-79
2022/10/20 11:10:41;;;;;;;7.83;2.77;;;;;;;15.68;44.71;99909.20;1624950;87;21091;-80
2022/10/20 11:13:26;;;;;;;5.83;2.35;;;;;;;15.77;47.03;99908.05;1626420;87;21075;-80
2022/10/20 11:16:08;;;;;;;5.35;2.70;;;;;;;15.91;49.22;99899.73;1637210;87;21095;-80
2022/10/20 11:19:00;;;;;;;6.15;2.42;;;;;;;16.09;49.49;99892.98;1647791;87;21537;-80
2022/10/20 11:21:56;;;;;;;6.22;2.37;;;;;;;16.15;47.07;99884.90;1627777;87;21063;-81
2022/10/20 11:24:38;;;;;;;4.92;2.60;;;;;;;16.25;48.41;99890.68;1634261;87;21336;-80
2022/10/20 11:27:13;;;;;;;4.60;2.42;;;;;;;16.48;48.08;99887.23;1625041;87;21670;-80
2022/10/20 11:29:46;;;;;;;5.95;2.17;;;;;;;16.86;47.30;99883.19;1641705;85;21090;-78
2022/10/20 11:32:19;;;;;;;5.25;2.20;;;;;;;17.28;47.95;99874.53;1670214;85;21045;-79
2022/10/20 11:35:01;;;;;;;;;;;;;;;17.61;45.34;99879.81;1631330;87;21067;-78
2022/10/20 11:37:40;;;;;;;9.03;2.65;;;;;;;17.78;44.13;99876.45;1625515;87;20139;-79
2022/10/20 11:40:27;;;;;;;4.90;2.90;;;;;;;17.98;45.19;99873.00;1633777;87;21028;-78
2022/10/20 11:43:16;;;;;;;8.43;2.52;;;;;;;18.02;43.68;99871.95;1623477;87;21052;-79
2022/10/20 11:46:04;;;;;;;4.65;2.15;;;;;;;18.13;43.75;99872.81;1634603;87;21047;-80
2022/10/20 11:48:51;;;;;;;4.92;2.50;;;;;;;18.29;41.34;99874.69;1630437;87;21059;-82
2022/10/20 11:52:01;;;;;;;4.78;2.30;;;;;;;18.42;42.02;99865.80;1634147;87;21088;-79
2022/10/20 11:55:12;;;;;;;8.25;2.30;;;;;;;18.49;41.67;99871.16;1636818;87;21044;-79
2022/10/20 11:57:57;;;;;;;4.08;2.30;;;;;;;18.71;43.74;99874.60;1626666;87;21183;-80